Time;durP1;ratioP1;P1;durP2;ratioP2;P2;SDS_P1;SDS_P2;PMS_P1;PMS_P2;Temp;Humidity;BMP_temperature;BMP_pressure;BME280_temperature;BME280_humidity;BME280_pressure;Samples;Min_cycle;Max_cycle;Signal;HPM_P1;HPM_P2
2020/12/24 00:01:46;;;;;;;220.95;17.40;;;;;;;4.68;90.05;100377.75;5027106;28;20033;-82
2020/12/24 00:04:12;;;;;;;277.40;17.60;;;;;;;4.68;90.09;100379.63;5026087;28;20037;-82
2020/12/24 00:06:37;;;;;;;184.73;12.70;;;;;;;4.70;90.29;100379.41;5011650;28;20032;-83
2020/12/24 00:09:03;;;;;;;224.05;15.40;;;;;;;4.70;90.13;100382.91;5021556;28;20029;-83
2020/12/24 00:11:29;;;;;;;242.75;17.13;;;;;;;4.68;90.13;100387.72;5019143;28;20101;-82
2020/12/24 00:13:55;;;;;;;249.38;16.98;;;;;;;4.66;89.99;100384.44;5031586;28;20506;-82
2020/12/24 00:16:21;;;;;;;224.38;18.10;;;;;;;4.65;90.34;100383.63;5010116;28;20067;-83
2020/12/24 00:18:46;;;;;;;269.05;18.20;;;;;;;4.67;90.33;100380.72;5033497;28;20031;-83
2020/12/24 00:21:11;;;;;;;94.47;8.75;;;;;;;4.67;90.20;100380.72;4997573;28;20025;-79
2020/12/24 00:23:37;;;;;;;279.88;20.08;;;;;;;4.69;90.36;100389.34;5030603;28;20037;-82
2020/12/24 00:26:03;;;;;;;244.98;16.35;;;;;;;4.70;90.42;100380.22;5032581;28;20047;-82
2020/12/24 00:28:31;;;;;;;211.60;14.95;;;;;;;4.67;90.24;100389.63;5015446;28;20036;-82
2020/12/24 00:30:57;;;;;;;223.00;15.65;;;;;;;4.67;90.34;100392.31;5010749;28;20022;-82
2020/12/24 00:33:22;;;;;;;203.50;16.10;;;;;;;4.68;90.33;100398.53;5013423;28;20047;-82
2020/12/24 00:35:47;;;;;;;280.05;19.20;;;;;;;4.68;90.33;100393.94;5031739;28;20387;-83
2020/12/24 00:38:14;;;;;;;253.95;20.95;;;;;;;4.70;90.33;100396.41;5032615;28;20044;-81
2020/12/24 00:40:40;;;;;;;304.77;20.90;;;;;;;4.71;90.32;100400.75;5032283;28;20033;-82
2020/12/24 00:43:05;;;;;;;194.65;14.10;;;;;;;4.73;90.50;100404.03;5031692;28;20732;-80
2020/12/24 00:45:30;;;;;;;197.35;17.13;;;;;;;4.74;90.37;100405.66;5009407;28;20022;-82
2020/12/24 00:47:56;;;;;;;169.43;16.58;;;;;;;4.77;90.26;100412.44;5029724;28;20025;-82
2020/12/24 00:50:22;;;;;;;177.93;15.00;;;;;;;4.79;90.64;100411.13;5026418;28;20037;-82
2020/12/24 00:52:47;;;;;;;125.00;11.40;;;;;;;4.80;90.20;100406.56;5013048;28;20025;-83
2020/12/24 00:55:13;;;;;;;134.43;11.70;;;;;;;4.77;90.30;100407.84;5028273;28;20083;-82
2020/12/24 00:57:38;;;;;;;84.82;8.30;;;;;;;4.75;90.25;100404.59;5028046;28;20032;-82
2020/12/24 01:00:05;;;;;;;71.53;8.10;;;;;;;4.73;90.39;100398.63;5018441;28;20032;-84
2020/12/24 01:02:30;;;;;;;38.42;6.68;;;;;;;4.72;90.45;100399.69;4993942;28;20068;-83
2020/12/24 01:04:56;;;;;;;72.68;7.60;;;;;;;4.72;90.53;100399.69;5014779;28;20394;-82
2020/12/24 01:07:21;;;;;;;60.67;7.80;;;;;;;4.71;90.56;100392.63;5011037;28;20087;-82
2020/12/24 01:09:47;;;;;;;64.03;7.88;;;;;;;4.67;90.51;100386.09;5011329;28;20021;-83
2020/12/24 01:12:12;;;;;;;72.00;8.38;;;;;;;4.64;90.44;100390.13;5017252;28;20395;-81
2020/12/24 01:14:37;;;;;;;69.50;8.77;;;;;;;4.62;90.37;100391.41;5013653;28;20033;-82
2020/12/24 01:17:03;;;;;;;44.97;6.65;;;;;;;4.58;90.43;100390.25;5010459;28;20017;-82
2020/12/24 01:19:28;;;;;;;100.43;9.88;;;;;;;4.56;90.22;100387.00;5028392;28;20430;-82
2020/12/24 01:21:53;;;;;;;124.35;10.80;;;;;;;4.54;90.26;100391.81;4994113;28;20051;-81
2020/12/24 01:24:20;;;;;;;76.03;8.65;;;;;;;4.53;90.26;100391.00;5011982;28;20051;-82
2020/12/24 01:26:49;;;;;;;183.50;15.35;;;;;;;4.52;90.50;100394.75;4998611;28;20038;-80
2020/12/24 01:29:14;;;;;;;180.38;13.23;;;;;;;4.51;90.22;100392.31;5012304;28;20032;-81
2020/12/24 01:31:46;;;;;;;178.95;15.10;;;;;;;4.51;90.63;100390.41;5015202;28;20025;-81
2020/12/24 01:34:12;;;;;;;210.27;18.25;;;;;;;4.50;90.51;100390.66;5009041;28;20021;-81
2020/12/24 01:36:38;;;;;;;161.73;14.18;;;;;;;4.48;90.29;100382.81;5010510;28;20213;-81
2020/12/24 01:39:04;;;;;;;207.80;17.60;;;;;;;4.49;90.49;100381.75;5031560;28;20177;-82
2020/12/24 01:41:29;;;;;;;160.18;14.57;;;;;;;4.51;90.34;100384.22;5027316;28;20033;-80
2020/12/24 01:43:55;;;;;;;93.35;9.57;;;;;;;4.52;90.48;100400.16;5032796;28;20036;-80
2020/12/24 01:46:20;;;;;;;49.95;7.18;;;;;;;4.52;90.37;100391.22;5028949;28;20027;-81
2020/12/24 01:48:46;;;;;;;110.45;9.82;;;;;;;4.50;90.31;100383.41;5029239;28;20033;-80
2020/12/24 01:51:25;;;;;;;34.35;6.53;;;;;;;4.48;90.36;100388.22;5010476;28;20026;-81
2020/12/24 01:53:50;;;;;;;66.82;6.88;;;;;;;4.48;90.26;100392.78;5013167;28;20021;-81
2020/12/24 01:56:15;;;;;;;52.17;7.72;;;;;;;4.48;90.34;100388.22;4996030;28;20031;-81
2020/12/24 01:58:41;;;;;;;54.15;8.18;;;;;;;4.50;90.59;100391.50;5011069;28;20537;-82
2020/12/24 02:01:06;;;;;;;32.10;6.70;;;;;;;4.53;90.47;100391.00;4993966;28;20026;-81
2020/12/24 02:03:31;;;;;;;17.75;5.43;;;;;;;4.54;90.59;100386.41;5032080;28;20348;-80
2020/12/24 02:05:57;;;;;;;20.00;4.72;;;;;;;4.54;90.20;100381.03;5026425;28;20029;-81
2020/12/24 02:08:22;;;;;;;20.25;5.43;;;;;;;4.53;90.47;100373.97;5008456;28;20064;-81
2020/12/24 02:10:48;;;;;;;10.68;3.58;;;;;;;4.51;90.52;100385.03;5029776;28;20829;-81
2020/12/24 02:13:13;;;;;;;10.05;2.92;;;;;;;4.47;90.32;100374.94;5014837;28;20025;-80
2020/12/24 02:15:39;;;;;;;8.23;3.67;;;;;;;4.44;90.66;100371.66;5030844;28;20029;-82
2020/12/24 02:18:05;;;;;;;6.72;2.47;;;;;;;4.40;90.32;100373.22;4997188;28;20029;-81
2020/12/24 02:20:31;;;;;;;7.80;2.80;;;;;;;4.39;90.64;100378.84;5009994;28;20033;-81
2020/12/24 02:22:56;;;;;;;6.68;2.20;;;;;;;4.38;90.16;100378.03;5013206;28;20045;-80
2020/12/24 02:25:21;;;;;;;4.45;2.03;;;;;;;4.38;90.28;100375.34;4993468;28;20029;-80
2020/12/24 02:27:47;;;;;;;5.82;2.10;;;;;;;4.36;90.37;100384.75;5010581;28;20029;-81
2020/12/24 02:30:12;;;;;;;8.93;2.05;;;;;;;4.34;90.70;100381.50;5029608;28;20022;-81
2020/12/24 02:32:37;;;;;;;6.28;2.10;;;;;;;4.33;90.21;100386.03;5007010;28;20021;-81
2020/12/24 02:35:04;;;;;;;4.68;1.70;;;;;;;4.31;90.50;100382.78;5028314;28;20025;-81
2020/12/24 02:37:29;;;;;;;3.88;1.58;;;;;;;4.27;90.30;100387.00;5031046;28;20483;-81
2020/12/24 02:39:55;;;;;;;4.70;1.80;;;;;;;4.25;90.56;100385.63;5011964;28;20049;-80
2020/12/24 02:42:20;;;;;;;5.10;1.65;;;;;;;4.22;90.50;100379.63;5027876;28;20028;-81
2020/12/24 02:44:46;;;;;;;4.38;1.73;;;;;;;4.21;90.39;100379.91;5007504;28;20025;-81
2020/12/24 02:47:11;;;;;;;5.97;1.70;;;;;;;4.16;90.37;100382.50;5011698;28;20085;-81
2020/12/24 02:49:38;;;;;;;4.45;1.83;;;;;;;4.11;90.29;100382.41;5011806;28;20561;-81
2020/12/24 02:52:04;;;;;;;3.03;1.40;;;;;;;4.07;90.20;100376.69;5010380;28;20398;-81
2020/12/24 02:54:29;;;;;;;6.00;1.60;;;;;;;4.03;90.36;100374.69;5027330;28;20025;-80
2020/12/24 02:56:55;;;;;;;3.38;0.88;;;;;;;4.00;90.58;100376.81;5029121;28;20033;-81
2020/12/24 02:59:20;;;;;;;1.88;1.00;;;;;;;3.98;90.27;100378.94;5032670;28;20033;-80
2020/12/24 03:01:45;;;;;;;2.08;1.10;;;;;;;3.99;90.24;100379.75;5011631;28;20030;-81
2020/12/24 03:04:12;;;;;;;5.03;1.33;;;;;;;3.98;90.42;100368.16;5010701;28;20041;-81
2020/12/24 03:06:37;;;;;;;3.25;1.17;;;;;;;3.98;90.58;100373.53;5028175;28;20032;-80
2020/12/24 03:09:03;;;;;;;4.70;1.17;;;;;;;3.94;90.49;100377.78;5030861;28;20025;-80
2020/12/24 03:11:28;;;;;;;2.47;1.15;;;;;;;3.88;90.25;100373.34;5026184;28;20486;-81
2020/12/24 03:13:55;;;;;;;4.32;1.10;;;;;;;3.84;90.23;100369.47;4989178;28;20051;-81
2020/12/24 03:16:21;;;;;;;2.28;0.85;;;;;;;3.80;90.38;100371.03;5025520;28;20371;-79
2020/12/24 03:18:46;;;;;;;2.65;0.98;;;;;;;3.80;90.51;100376.41;5010974;28;20025;-81
2020/12/24 03:21:11;;;;;;;2.45;1.08;;;;;;;3.82;90.42;100368.06;5028683;28;20064;-80
2020/12/24 03:23:37;;;;;;;3.95;0.88;;;;;;;3.83;90.23;100381.31;5026499;28;20024;-81
2020/12/24 03:26:02;;;;;;;4.28;1.27;;;;;;;3.85;90.21;100383.78;5004931;28;20391;-80
2020/12/24 03:28:27;;;;;;;6.45;2.30;;;;;;;3.88;90.53;100389.53;5024093;28;20033;-81
2020/12/24 03:30:53;;;;;;;7.07;2.50;;;;;;;3.91;90.65;100389.03;5013230;28;20063;-81
2020/12/24 03:33:18;;;;;;;4.78;2.63;;;;;;;3.91;90.09;100386.34;5029985;28;20517;-81
2020/12/24 03:35:44;;;;;;;6.60;2.95;;;;;;;3.91;90.53;100399.81;4985344;28;20084;-80
2020/12/24 03:38:09;;;;;;;5.05;2.42;;;;;;;3.88;90.18;100388.72;5029370;28;20029;-81
2020/12/24 03:40:35;;;;;;;6.07;2.38;;;;;;;3.83;90.53;100386.72;5010473;28;20044;-80
2020/12/24 03:43:00;;;;;;;5.15;2.25;;;;;;;3.81;89.88;100383.44;5011514;28;20071;-81
2020/12/24 03:45:26;;;;;;;3.88;1.90;;;;;;;3.76;90.24;100380.63;5009999;28;20037;-80
2020/12/24 03:47:52;;;;;;;8.23;2.17;;;;;;;3.74;90.20;100382.75;5009604;28;20055;-80
2020/12/24 03:50:17;;;;;;;3.50;1.73;;;;;;;3.69;90.18;100374.56;5027030;28;20475;-81
2020/12/24 03:52:42;;;;;;;4.80;1.60;;;;;;;3.61;89.82;100372.25;5013771;28;20030;-83
2020/12/24 03:55:08;;;;;;;7.38;1.85;;;;;;;3.51;90.41;100373.66;5027942;28;20025;-82
2020/12/24 03:57:33;;;;;;;5.00;1.95;;;;;;;3.45;89.91;100381.88;5025915;28;20088;-81
2020/12/24 03:59:59;;;;;;;3.40;1.95;;;;;;;3.43;90.61;100381.28;5012324;28;20021;-80
2020/12/24 04:02:24;;;;;;;4.57;2.40;;;;;;;3.44;90.36;100393.72;5006086;28;20080;-83
2020/12/24 04:04:49;;;;;;;6.07;1.98;;;;;;;3.43;90.13;100392.06;5023103;28;20499;-80
2020/12/24 04:07:15;;;;;;;6.32;2.45;;;;;;;3.40;89.88;100393.34;5029860;28;20049;-80
2020/12/24 04:09:40;;;;;;;4.63;2.17;;;;;;;3.37;90.46;100385.75;5029066;28;20033;-81
2020/12/24 04:12:06;;;;;;;6.95;2.05;;;;;;;3.31;90.35;100384.81;5021764;28;20032;-80
2020/12/24 04:14:31;;;;;;;3.47;2.15;;;;;;;3.24;89.92;100394.88;5011112;28;20392;-79
2020/12/24 04:16:57;;;;;;;5.75;2.58;;;;;;;3.20;90.24;100398.31;5026837;28;20045;-81
2020/12/24 04:19:22;;;;;;;4.55;2.22;;;;;;;3.15;90.24;100395.50;5007509;28;20039;-79
2020/12/24 04:21:48;;;;;;;5.75;2.22;;;;;;;3.07;90.20;100388.56;5009274;28;20045;-80
2020/12/24 04:24:13;;;;;;;6.63;2.40;;;;;;;3.00;90.43;100383.31;5010883;28;20136;-79
2020/12/24 04:26:39;;;;;;;6.57;2.58;;;;;;;2.92;89.85;100386.34;5028562;28;20053;-80
2020/12/24 04:29:04;;;;;;;7.22;2.72;;;;;;;2.87;89.92;100388.91;5029226;28;20022;-80
2020/12/24 04:31:29;;;;;;;4.45;2.30;;;;;;;2.82;90.22;100396.88;5020875;28;20299;-81
2020/12/24 04:33:55;;;;;;;4.88;2.40;;;;;;;2.77;90.19;100394.88;5019462;28;20034;-82
2020/12/24 04:36:20;;;;;;;3.85;2.28;;;;;;;2.73;89.79;100395.56;5012347;28;20025;-81
2020/12/24 04:38:46;;;;;;;5.55;2.28;;;;;;;2.69;90.13;100397.06;5023394;28;20037;-80
2020/12/24 04:41:11;;;;;;;10.70;2.30;;;;;;;2.65;89.91;100404.81;5004473;28;20029;-80
2020/12/24 04:43:37;;;;;;;4.57;2.30;;;;;;;2.62;90.13;100413.34;5010641;28;20425;-80
2020/12/24 04:46:03;;;;;;;4.72;2.47;;;;;;;2.58;89.96;100407.59;4994910;28;20084;-80
2020/12/24 04:48:28;;;;;;;6.95;2.13;;;;;;;2.55;89.75;100408.03;4993091;28;20029;-80
2020/12/24 04:50:54;;;;;;;7.30;2.58;;;;;;;2.51;89.58;100412.25;5023628;28;20040;-80
2020/12/24 04:53:19;;;;;;;5.72;2.58;;;;;;;2.48;90.24;100418.06;5011274;28;20026;-79
2020/12/24 04:55:45;;;;;;;5.45;2.13;;;;;;;2.47;90.59;100424.50;5027521;28;20114;-80
2020/12/24 04:58:10;;;;;;;4.63;2.80;;;;;;;2.44;90.53;100416.91;5012715;28;20387;-80
2020/12/24 05:00:39;;;;;;;7.68;2.83;;;;;;;2.47;90.37;100427.22;5014427;28;20026;-80
2020/12/24 05:03:06;;;;;;;4.97;2.72;;;;;;;2.48;89.63;100426.16;4996259;28;20367;-79
2020/12/24 05:05:32;;;;;;;5.95;2.83;;;;;;;2.50;90.25;100426.75;5011393;28;20057;-82
2020/12/24 05:08:00;;;;;;;5.03;2.25;;;;;;;2.50;90.38;100437.50;5032678;28;20184;-82
2020/12/24 05:10:26;;;;;;;5.20;2.20;;;;;;;2.48;89.89;100434.22;4996426;28;20041;-84
2020/12/24 05:12:51;;;;;;;4.78;1.90;;;;;;;2.43;90.00;100439.50;5028869;28;20442;-83
2020/12/24 05:15:30;;;;;;;3.58;1.80;;;;;;;2.40;90.15;100437.22;5010457;28;20065;-81
2020/12/24 05:18:24;;;;;;;4.63;2.17;;;;;;;2.36;89.51;100436.06;5004309;28;20022;-83
2020/12/24 05:20:50;;;;;;;2.67;1.98;;;;;;;2.32;90.15;100430.31;5020161;28;20025;-81
2020/12/24 05:23:16;;;;;;;6.88;2.45;;;;;;;2.29;90.16;100429.94;5025734;28;20498;-80
2020/12/24 05:25:42;;;;;;;3.00;2.05;;;;;;;2.26;90.17;100430.41;5014040;28;20076;-82
2020/12/24 05:28:08;;;;;;;3.22;1.88;;;;;;;2.21;90.45;100429.22;5007266;28;20029;-81
2020/12/24 05:30:35;;;;;;;2.95;1.90;;;;;;;2.20;90.17;100424.06;5007793;28;20452;-80
2020/12/24 05:33:00;;;;;;;4.70;1.95;;;;;;;2.18;90.23;100427.00;5003350;28;20037;-82
2020/12/24 05:35:26;;;;;;;3.90;1.88;;;;;;;2.17;90.27;100436.09;4981342;28;20053;-81
2020/12/24 05:37:52;;;;;;;3.33;1.77;;;;;;;2.16;90.45;100426.38;5032498;28;20032;-79
2020/12/24 05:40:25;;;;;;;4.85;1.92;;;;;;;2.15;90.07;100430.09;4998556;28;20056;-80
2020/12/24 05:42:55;;;;;;;5.75;1.80;;;;;;;2.15;89.92;100430.09;4987830;28;20013;-81
2020/12/24 05:45:26;;;;;;;4.43;2.05;;;;;;;2.15;90.15;100430.09;5009985;28;20061;-81
2020/12/24 05:48:10;;;;;;;4.05;1.75;;;;;;;2.17;90.34;100438.78;5031436;28;20033;-80
2020/12/24 05:50:35;;;;;;;5.72;2.50;;;;;;;2.19;90.83;100427.81;5033336;28;20029;-80
2020/12/24 05:53:04;;;;;;;4.10;2.25;;;;;;;2.21;90.05;100431.09;4997271;28;20514;-80
2020/12/24 05:55:30;;;;;;;3.88;2.40;;;;;;;2.21;90.54;100423.84;5013002;28;20033;-80
2020/12/24 05:57:55;;;;;;;4.35;2.50;;;;;;;2.25;90.23;100434.16;5027672;28;20032;-81
2020/12/24 06:00:21;;;;;;;4.65;2.45;;;;;;;2.26;90.06;100441.16;4996798;28;20482;-81
2020/12/24 06:02:46;;;;;;;5.18;2.15;;;;;;;2.26;89.88;100438.47;4991863;28;20021;-81
2020/12/24 06:05:11;;;;;;;3.90;2.17;;;;;;;2.27;90.17;100434.75;4994727;28;20044;-81
2020/12/24 06:07:37;;;;;;;5.70;2.40;;;;;;;2.29;90.00;100430.78;4995095;28;20036;-80
2020/12/24 06:10:07;;;;;;;3.67;2.60;;;;;;;2.31;90.38;100441.28;5011328;28;20483;-80
2020/12/24 06:12:32;;;;;;;4.60;2.63;;;;;;;2.33;90.60;100447.28;5027891;28;20394;-79
2020/12/24 06:15:02;;;;;;;4.97;2.47;;;;;;;2.33;90.41;100441.91;5007605;28;20037;-80
2020/12/24 06:17:29;;;;;;;3.90;2.47;;;;;;;2.33;90.31;100453.47;5011841;28;20021;-81
2020/12/24 06:19:54;;;;;;;5.43;2.55;;;;;;;2.33;90.13;100447.28;4995697;28;20049;-79
2020/12/24 06:22:23;;;;;;;5.50;2.42;;;;;;;2.33;90.20;100444.59;5012090;28;20045;-79
2020/12/24 06:24:57;;;;;;;4.38;2.53;;;;;;;2.34;90.49;100446.22;5031649;28;20463;-79
2020/12/24 06:27:42;;;;;;;5.03;3.10;;;;;;;2.33;90.26;100447.28;4990598;28;20566;-80
2020/12/24 06:30:09;;;;;;;3.92;2.33;;;;;;;2.32;90.29;100449.16;5014558;28;20021;-80
2020/12/24 06:32:39;;;;;;;3.90;2.50;;;;;;;2.31;90.34;100455.56;4995315;28;20727;-80
2020/12/24 06:35:04;;;;;;;4.00;2.30;;;;;;;2.31;90.48;100454.75;5022540;28;20041;-80
2020/12/24 06:37:40;;;;;;;5.72;2.28;;;;;;;2.32;89.75;100453.69;5010692;28;20072;-81
2020/12/24 06:40:06;;;;;;;4.03;2.35;;;;;;;2.30;89.99;100453.13;5031742;28;20029;-80
2020/12/24 06:42:44;;;;;;;3.58;2.00;;;;;;;2.31;90.41;100460.94;5030361;28;20116;-80
2020/12/24 06:45:24;;;;;;;5.25;2.63;;;;;;;2.31;90.46;100466.31;5027225;28;20031;-80
2020/12/24 06:48:11;;;;;;;13.95;9.68;;;;;;;2.31;90.57;100466.31;5013445;28;20033;-80
2020/12/24 06:50:39;;;;;;;4.95;3.40;;;;;;;2.32;90.13;100469.81;5026703;28;20017;-81
2020/12/24 06:53:19;;;;;;;10.30;7.72;;;;;;;2.33;90.27;100463.41;5026861;28;20065;-80
2020/12/24 06:56:06;;;;;;;7.03;3.60;;;;;;;2.35;90.33;100472.09;5028762;28;20114;-80
2020/12/24 06:59:03;;;;;;;4.40;3.22;;;;;;;2.34;90.88;100475.81;5005998;28;20406;-81
2020/12/24 07:01:35;;;;;;;3.70;2.25;;;;;;;2.34;90.50;100481.19;5009513;28;20033;-80
2020/12/24 07:04:03;;;;;;;7.35;3.08;;;;;;;2.30;90.19;100488.09;4995897;28;20095;-80
2020/12/24 07:06:40;;;;;;;5.95;3.20;;;;;;;2.26;90.34;100495.75;5027954;28;20227;-80
2020/12/24 07:09:32;;;;;;;6.32;2.63;;;;;;;2.20;90.05;100497.50;5026582;28;20044;-81
2020/12/24 07:11:57;;;;;;;4.10;2.60;;;;;;;2.16;90.42;100499.00;5026745;28;20021;-81
2020/12/24 07:14:32;;;;;;;7.10;3.80;;;;;;;2.12;90.06;100505.84;5023540;28;20034;-81
2020/12/24 07:17:09;;;;;;;4.75;2.70;;;;;;;2.09;89.95;100513.56;5016005;28;20074;-81
2020/12/24 07:19:36;;;;;;;5.00;2.45;;;;;;;2.05;89.99;100509.69;5010213;28;20026;-81
2020/12/24 07:22:05;;;;;;;5.38;2.70;;;;;;;2.01;89.96;100517.38;4996115;28;20111;-82
2020/12/24 07:24:31;;;;;;;6.97;3.13;;;;;;;1.98;90.11;100521.31;4994818;28;20064;-81
2020/12/24 07:27:02;;;;;;;3.97;2.38;;;;;;;1.95;90.70;100521.78;5009338;28;20505;-82
2020/12/24 07:29:29;;;;;;;5.07;2.60;;;;;;;1.92;90.46;100526.78;5025748;28;20048;-80
2020/12/24 07:31:55;;;;;;;4.00;2.33;;;;;;;1.89;90.37;100522.69;5008097;28;20034;-81
2020/12/24 07:34:24;;;;;;;3.22;2.13;;;;;;;1.85;90.27;100524.16;4997900;28;20030;-81
2020/12/24 07:36:50;;;;;;;4.88;2.30;;;;;;;1.84;90.27;100529.75;5006264;28;20076;-79
2020/12/24 07:39:15;;;;;;;4.60;2.40;;;;;;;1.77;90.50;100525.28;5010940;28;20026;-78
2020/12/24 07:41:41;;;;;;;5.15;2.72;;;;;;;1.73;90.74;100537.50;5008464;28;20033;-80
2020/12/24 07:44:13;;;;;;;3.38;2.42;;;;;;;1.67;90.62;100546.47;5010893;28;20033;-83
2020/12/24 07:46:39;;;;;;;3.42;2.10;;;;;;;1.63;90.02;100547.94;4991283;28;20398;-80
2020/12/24 07:49:04;;;;;;;3.15;2.20;;;;;;;1.58;90.31;100555.81;5023751;28;20041;-80
2020/12/24 07:51:30;;;;;;;3.45;1.65;;;;;;;1.54;90.06;100554.63;5012751;28;20380;-85
2020/12/24 07:54:17;;;;;;;3.97;1.95;;;;;;;1.50;90.19;100553.41;4998023;28;20037;-80
2020/12/24 07:56:46;;;;;;;7.55;4.20;;;;;;;1.46;90.36;100549.53;5009678;28;20083;-80
2020/12/24 07:59:12;;;;;;;7.00;4.40;;;;;;;1.44;90.35;100559.66;5011580;28;20120;-81
2020/12/24 08:01:37;;;;;;;5.50;3.20;;;;;;;1.40;89.95;100567.34;5008635;28;20125;-80
2020/12/24 08:04:04;;;;;;;8.65;4.80;;;;;;;1.38;90.36;100571.28;5009099;28;20033;-78
2020/12/24 08:06:33;;;;;;;7.40;3.63;;;;;;;1.36;89.90;100562.63;5008796;28;20041;-83
2020/12/24 08:09:12;;;;;;;3.53;2.17;;;;;;;1.32;90.62;100575.69;5007674;28;20055;-79
2020/12/24 08:11:38;;;;;;;2.85;1.17;;;;;;;1.30;90.15;100578.56;5002366;28;20033;-79
2020/12/24 08:14:03;;;;;;;3.53;2.60;;;;;;;1.29;90.19;100576.94;5008512;28;20028;-80
2020/12/24 08:16:29;;;;;;;3.30;2.17;;;;;;;1.26;90.52;100576.56;4976352;28;20582;-79
2020/12/24 08:19:54;;;;;;;3.45;1.90;;;;;;;1.23;90.02;100577.81;4993775;28;20033;-80
2020/12/24 08:22:29;;;;;;;3.25;1.70;;;;;;;1.21;89.88;100585.25;5003986;28;20558;-83
2020/12/24 08:24:55;;;;;;;2.83;1.70;;;;;;;1.18;90.50;100585.69;5007858;28;20098;-80
2020/12/24 08:27:20;;;;;;;2.67;1.95;;;;;;;1.16;89.78;100587.75;5005195;28;20049;-79
2020/12/24 08:29:46;;;;;;;5.18;1.80;;;;;;;1.16;90.05;100586.94;5028245;28;20033;-80
2020/12/24 08:32:11;;;;;;;2.90;1.92;;;;;;;1.15;90.04;100590.69;5023549;28;21003;-79
2020/12/24 08:34:37;;;;;;;3.10;1.67;;;;;;;1.12;90.35;100589.25;5022029;28;20061;-79
2020/12/24 08:37:02;;;;;;;3.08;1.80;;;;;;;1.14;90.29;100595.19;5015230;28;20410;-79
2020/12/24 08:39:28;;;;;;;3.83;1.90;;;;;;;1.10;90.23;100585.94;5021733;28;20028;-83
2020/12/24 08:41:53;;;;;;;2.92;2.00;;;;;;;1.11;89.82;100598.31;4989537;28;20116;-86
2020/12/24 08:44:19;;;;;;;2.83;1.45;;;;;;;1.10;90.34;100600.19;5032015;28;20032;-81
2020/12/24 08:46:45;;;;;;;2.70;1.50;;;;;;;1.10;90.44;100600.19;5016579;28;20021;-80
2020/12/24 08:49:24;;;;;;;4.35;1.98;;;;;;;1.09;90.01;100601.25;5014222;28;20033;-81
2020/12/24 08:51:50;;;;;;;3.28;1.88;;;;;;;1.10;90.26;100605.56;5011601;28;20034;-81
2020/12/24 08:54:16;;;;;;;4.05;1.90;;;;;;;1.10;89.88;100615.47;5014027;28;20159;-81
2020/12/24 08:56:45;;;;;;;2.70;1.80;;;;;;;1.10;89.82;100620.84;5014281;28;20025;-80
2020/12/24 08:59:13;;;;;;;3.95;2.35;;;;;;;1.09;90.01;100619.19;5027312;28;20025;-80
2020/12/24 09:01:40;;;;;;;4.15;2.20;;;;;;;1.10;89.68;100620.84;5017555;28;20029;-80
2020/12/24 09:04:12;;;;;;;6.70;4.35;;;;;;;1.09;90.54;100624.56;5030404;28;20027;-80
2020/12/24 09:06:38;;;;;;;6.20;2.45;;;;;;;1.09;90.22;100622.72;5027929;28;20028;-79
2020/12/24 09:09:03;;;;;;;2.78;1.75;;;;;;;1.08;90.45;100628.28;5011612;28;20029;-81
2020/12/24 09:11:30;;;;;;;4.65;2.95;;;;;;;1.07;90.33;100627.47;5006366;28;20100;-81
2020/12/24 09:13:59;;;;;;;3.78;1.83;;;;;;;1.07;90.32;100638.22;4999156;28;20049;-80
2020/12/24 09:16:25;;;;;;;3.65;1.60;;;;;;;1.06;89.75;100635.72;5012602;28;20029;-81
2020/12/24 09:19:09;;;;;;;4.90;2.13;;;;;;;1.05;89.78;100650.19;5012033;28;20044;-80
2020/12/24 09:21:35;;;;;;;2.55;1.50;;;;;;;1.04;89.71;100652.06;5010178;28;20072;-80
2020/12/24 09:24:07;;;;;;;3.25;1.55;;;;;;;1.04;90.32;100648.56;5015861;28;20517;-81
2020/12/24 09:26:42;;;;;;;;;;;;;;;1.05;90.06;100653.69;5032788;28;20055;-79
2020/12/24 09:29:07;;;;;;;2.22;1.05;;;;;;;1.03;90.08;100655.78;5011584;28;20590;-80
2020/12/24 09:31:33;;;;;;;2.15;1.25;;;;;;;1.02;89.79;100650.63;5005994;28;20115;-81
2020/12/24 09:33:58;;;;;;;2.95;1.10;;;;;;;1.01;90.01;100659.72;5028011;28;20021;-80
2020/12/24 09:36:24;;;;;;;1.95;1.00;;;;;;;1.01;90.54;100668.59;4998947;28;20738;-82
2020/12/24 09:38:50;;;;;;;2.72;1.20;;;;;;;1.03;90.21;100668.38;5011944;28;20241;-81
2020/12/24 09:41:15;;;;;;;3.17;1.35;;;;;;;1.02;90.27;100666.75;5028194;28;20075;-81
2020/12/24 09:43:41;;;;;;;1.80;1.10;;;;;;;1.02;90.08;100674.78;4992901;28;21868;-81
2020/12/24 09:46:06;;;;;;;2.38;0.77;;;;;;;1.01;89.86;100682.03;5032013;28;20605;-80
2020/12/24 09:48:32;;;;;;;1.13;0.75;;;;;;;1.02;90.04;100682.84;5013874;28;20029;-82
2020/12/24 09:50:59;;;;;;;1.40;1.20;;;;;;;1.02;90.30;100677.47;5032271;28;20434;-80
2020/12/24 09:53:24;;;;;;;2.20;0.82;;;;;;;1.02;90.22;100680.16;5013521;28;20039;-81
2020/12/24 09:55:50;;;;;;;1.70;0.88;;;;;;;1.02;90.18;100685.53;5014617;28;20406;-81
2020/12/24 09:58:16;;;;;;;0.95;0.60;;;;;;;1.02;89.90;100683.66;5015087;28;20026;-81
2020/12/24 10:00:42;;;;;;;1.27;0.90;;;;;;;1.02;90.34;100685.53;5032933;28;20021;-80
2020/12/24 10:03:07;;;;;;;3.55;0.90;;;;;;;1.01;90.03;100692.78;5013637;28;20028;-81
2020/12/24 10:05:32;;;;;;;1.30;0.90;;;;;;;1.01;90.19;100692.78;5028174;28;20083;-83
2020/12/24 10:07:58;;;;;;;2.53;1.00;;;;;;;1.00;89.89;100695.66;5028720;28;20021;-81
2020/12/24 10:10:24;;;;;;;1.83;1.10;;;;;;;0.99;89.85;100699.38;5029814;28;20036;-83
2020/12/24 10:12:49;;;;;;;2.92;1.10;;;;;;;0.99;89.86;100702.06;5028804;28;20092;-82
2020/12/24 10:15:14;;;;;;;1.80;1.02;;;;;;;0.98;89.78;100706.63;5014993;28;20037;-83
2020/12/24 10:17:40;;;;;;;1.30;0.82;;;;;;;0.97;90.40;100713.00;5028408;28;20036;-81
2020/12/24 10:20:05;;;;;;;1.20;0.98;;;;;;;0.96;90.13;100707.88;5010306;28;20040;-83
2020/12/24 10:22:31;;;;;;;1.00;0.90;;;;;;;0.97;89.85;100713.00;5023568;28;20046;-82
2020/12/24 10:24:56;;;;;;;1.63;0.77;;;;;;;0.97;89.63;100709.50;5023152;28;20056;-83
2020/12/24 10:27:21;;;;;;;1.73;0.68;;;;;;;0.95;90.04;100717.75;5021993;28;20056;-84
2020/12/24 10:29:47;;;;;;;1.55;0.70;;;;;;;0.95;89.92;100716.94;5026002;28;20032;-82
2020/12/24 10:32:12;;;;;;;1.15;0.70;;;;;;;0.94;89.92;100715.28;5009845;28;20789;-85
2020/12/24 10:34:38;;;;;;;1.85;0.88;;;;;;;0.93;89.77;100722.53;4996700;28;20025;-85
2020/12/24 10:37:03;;;;;;;3.05;1.33;;;;;;;0.94;89.80;100716.13;5008698;28;20235;-85
2020/12/24 10:39:29;;;;;;;1.35;0.93;;;;;;;0.93;89.87;100713.63;5029077;28;20033;-86
2020/12/24 10:41:54;;;;;;;1.77;0.95;;;;;;;0.93;89.83;100724.38;5015979;28;20116;-85
2020/12/24 10:44:20;;;;;;;1.50;0.80;;;;;;;0.92;89.47;100726.22;5033170;28;20660;-86
2020/12/24 10:46:45;;;;;;;2.90;0.77;;;;;;;0.93;89.49;100721.69;5019580;28;20375;-84
2020/12/24 10:49:11;;;;;;;1.25;0.80;;;;;;;0.93;90.14;100721.69;5031950;28;20055;-86
2020/12/24 10:51:36;;;;;;;1.08;0.70;;;;;;;0.93;89.53;100724.38;4997177;28;20045;-86
2020/12/24 10:54:03;;;;;;;0.90;0.63;;;;;;;0.92;89.74;100736.16;5015232;28;20029;-86
2020/12/24 10:56:28;;;;;;;1.50;0.98;;;;;;;0.92;89.33;100730.78;5031834;28;20119;-84
2020/12/24 10:58:53;;;;;;;3.20;0.93;;;;;;;0.92;89.89;100730.78;5031941;28;20029;-85
2020/12/24 11:01:19;;;;;;;1.15;0.70;;;;;;;0.90;89.67;100731.00;5031863;28;20039;-86
2020/12/24 11:03:45;;;;;;;2.45;0.80;;;;;;;0.89;89.27;100732.03;5012502;28;20034;-85
2020/12/24 11:06:20;;;;;;;4.25;0.80;;;;;;;0.89;89.50;100732.84;4979570;28;20030;-84
2020/12/24 11:08:46;;;;;;;1.35;0.63;;;;;;;0.89;89.56;100735.53;5022629;28;20029;-85
2020/12/24 11:11:12;;;;;;;1.40;0.45;;;;;;;0.89;89.18;100738.22;5014036;28;20048;-85
2020/12/24 11:13:37;;;;;;;1.38;1.23;;;;;;;0.89;89.42;100734.72;5014507;28;20025;-84
2020/12/24 11:16:03;;;;;;;1.67;0.68;;;;;;;0.88;89.44;100731.22;5030984;28;20060;-85
2020/12/24 11:18:29;;;;;;;1.60;0.50;;;;;;;0.88;89.23;100731.22;5011718;28;20037;-85
2020/12/24 11:20:57;;;;;;;1.27;0.75;;;;;;;0.89;89.01;100719.44;5032823;28;20044;-84
2020/12/24 11:23:23;;;;;;;1.48;0.50;;;;;;;0.91;89.16;100721.09;4995608;28;20050;-85
2020/12/24 11:25:48;;;;;;;0.85;0.68;;;;;;;0.88;88.99;100715.09;4994658;28;20021;-84
2020/12/24 11:28:13;;;;;;;1.58;0.80;;;;;;;0.90;89.04;100709.53;5010890;28;20037;-85
2020/12/24 11:30:39;;;;;;;1.73;0.93;;;;;;;0.95;89.40;100714.25;5032026;28;20021;-86